Ana Sayfa
METAR-TAF:

METAR-TAF

Havaalanları :

Şirak Havalimanı

Gümrü, Ermenistan

Enlem: 40-45-01N, Boylam: 043-51-33E, yükseklik: 1524 m

Güncel hava durumu gözlemi

Rapor saat 22:30 UTC de 38 dakika önce yapıldı.
Rüzgar doğu/kuzeydoğudan 3 kt
Sıcaklık -5°C
Nem 79%
Basınç 1019 hPa
Görüş mesafesi: 8000 m

METAR: UDSG 192230Z 06003KT 8000 NSC M05/M08 Q1019 R02/CLRD70 NOSIG

Saat: 03:08 (23:08 UTC)

Tahmin

Rapor saat 17:06 UTC de 6 saat ve 2 dakika önce yapıldı.
Ayın 19'si saat 18 UTC'den ayın 20'si saat 18 UTC'ye kadar geçerli Tahmin
Rüzgar doğu/kuzeydoğudan 8 kt
Görüş mesafesi 10 km veya daha fazla
4000 ft yükseklikte parçalı bulutlu
Geçici
ayın 19'si saat 22 UTC'den ayın 20'si saat 07 UTC'ye kadar
Görüş mesafesi: 5000 m
3000 ft yükseklikte parçalı çok bulutlu
Pus

TAF: UDSG 191706Z 1918/2018 06008KT 9999 SCT040 TEMPO 1922/2007 5000 BR BKN030

4.000'den fazla havaalanı için hava durumu gözlemleri ve tahminleri (METAR ve TAF raporları).

Kullanılabilir istasyonlar harita üzerinde sarı ve kırmızı noktalarla gösterilir.

İstasyonun adını görmek için fareyi noktanın üzerinde gezdirin.

Sonrasında hava gözlem ve tahminlerini görmek için tıklayın.

Haritayı değiştirmek için: yaklaştırmak için siyah artı işaretli yeşil düğmeye ve uzaklaştırmak için de eksi işaretli düğmeye hızla tıklayın; bitişik haritalar için yeşil okları kullanın.


METAR-TAF: